sensor_id;sensor_type;location;lat;lon;timestamp;P1;durP1;ratioP1;P2;durP2;ratioP2
59189;SDS011;50749;51.636;4.948;2023-04-25T00:00:12;2.50;;;0.85;;
59189;SDS011;50749;51.636;4.948;2023-04-25T00:02:58;2.03;;;1.05;;
59189;SDS011;50749;51.636;4.948;2023-04-25T00:05:25;3.75;;;1.00;;
59189;SDS011;50749;51.636;4.948;2023-04-25T00:07:52;3.60;;;1.00;;
59189;SDS011;50749;51.636;4.948;2023-04-25T00:10:19;3.20;;;0.98;;
59189;SDS011;50749;51.636;4.948;2023-04-25T00:12:45;3.33;;;1.20;;
59189;SDS011;50749;51.636;4.948;2023-04-25T00:15:11;4.15;;;1.45;;
59189;SDS011;50749;51.636;4.948;2023-04-25T00:17:37;2.72;;;1.30;;
59189;SDS011;50749;51.636;4.948;2023-04-25T00:20:06;2.30;;;0.77;;
59189;SDS011;50749;51.636;4.948;2023-04-25T00:22:34;3.67;;;1.48;;
59189;SDS011;50749;51.636;4.948;2023-04-25T00:25:06;3.35;;;0.88;;
59189;SDS011;50749;51.636;4.948;2023-04-25T00:27:32;2.25;;;0.90;;
59189;SDS011;50749;51.636;4.948;2023-04-25T00:29:58;5.13;;;0.80;;
59189;SDS011;50749;51.636;4.948;2023-04-25T00:32:24;2.63;;;1.20;;
59189;SDS011;50749;51.636;4.948;2023-04-25T00:34:50;1.63;;;0.80;;
59189;SDS011;50749;51.636;4.948;2023-04-25T00:37:16;1.75;;;0.90;;
59189;SDS011;50749;51.636;4.948;2023-04-25T00:39:42;3.33;;;1.00;;
59189;SDS011;50749;51.636;4.948;2023-04-25T00:42:07;2.53;;;0.77;;
59189;SDS011;50749;51.636;4.948;2023-04-25T00:44:33;3.42;;;1.10;;
59189;SDS011;50749;51.636;4.948;2023-04-25T00:47:01;2.80;;;1.10;;
59189;SDS011;50749;51.636;4.948;2023-04-25T00:49:28;3.33;;;0.90;;
59189;SDS011;50749;51.636;4.948;2023-04-25T00:51:53;3.67;;;1.00;;
59189;SDS011;50749;51.636;4.948;2023-04-25T00:54:20;2.63;;;0.88;;
59189;SDS011;50749;51.636;4.948;2023-04-25T00:56:46;3.03;;;1.17;;
59189;SDS011;50749;51.636;4.948;2023-04-25T00:59:12;3.10;;;0.80;;
59189;SDS011;50749;51.636;4.948;2023-04-25T01:01:38;2.15;;;1.20;;
59189;SDS011;50749;51.636;4.948;2023-04-25T01:04:05;2.65;;;0.90;;
59189;SDS011;50749;51.636;4.948;2023-04-25T01:06:30;3.38;;;1.20;;
59189;SDS011;50749;51.636;4.948;2023-04-25T01:08:57;1.80;;;0.70;;
59189;SDS011;50749;51.636;4.948;2023-04-25T01:11:23;3.35;;;0.90;;
59189;SDS011;50749;51.636;4.948;2023-04-25T01:13:49;2.13;;;0.88;;
59189;SDS011;50749;51.636;4.948;2023-04-25T01:16:14;1.75;;;0.98;;
59189;SDS011;50749;51.636;4.948;2023-04-25T01:18:40;1.83;;;1.15;;
59189;SDS011;50749;51.636;4.948;2023-04-25T01:21:08;2.90;;;0.90;;
59189;SDS011;50749;51.636;4.948;2023-04-25T01:23:35;3.08;;;1.05;;
59189;SDS011;50749;51.636;4.948;2023-04-25T01:26:03;4.82;;;1.10;;
59189;SDS011;50749;51.636;4.948;2023-04-25T01:28:29;3.40;;;1.00;;
59189;SDS011;50749;51.636;4.948;2023-04-25T01:30:56;3.35;;;0.90;;
59189;SDS011;50749;51.636;4.948;2023-04-25T01:33:22;5.22;;;1.08;;
59189;SDS011;50749;51.636;4.948;2023-04-25T01:35:48;2.33;;;0.82;;
59189;SDS011;50749;51.636;4.948;2023-04-25T01:38:14;3.50;;;0.80;;
59189;SDS011;50749;51.636;4.948;2023-04-25T01:40:40;1.45;;;0.90;;
59189;SDS011;50749;51.636;4.948;2023-04-25T01:43:07;2.30;;;1.05;;
59189;SDS011;50749;51.636;4.948;2023-04-25T01:45:36;3.58;;;0.90;;
59189;SDS011;50749;51.636;4.948;2023-04-25T01:48:07;2.47;;;1.15;;
59189;SDS011;50749;51.636;4.948;2023-04-25T01:50:37;4.60;;;1.20;;
59189;SDS011;50749;51.636;4.948;2023-04-25T01:53:04;2.75;;;0.90;;
59189;SDS011;50749;51.636;4.948;2023-04-25T01:55:30;2.08;;;0.93;;
59189;SDS011;50749;51.636;4.948;2023-04-25T01:57:56;3.38;;;1.00;;
59189;SDS011;50749;51.636;4.948;2023-04-25T02:00:23;3.40;;;0.75;;
59189;SDS011;50749;51.636;4.948;2023-04-25T02:02:49;2.65;;;1.30;;
59189;SDS011;50749;51.636;4.948;2023-04-25T02:05:16;2.67;;;1.40;;
59189;SDS011;50749;51.636;4.948;2023-04-25T02:07:42;2.33;;;1.10;;
59189;SDS011;50749;51.636;4.948;2023-04-25T02:10:08;6.10;;;1.10;;
59189;SDS011;50749;51.636;4.948;2023-04-25T02:12:35;3.10;;;1.02;;
59189;SDS011;50749;51.636;4.948;2023-04-25T02:15:01;2.10;;;0.70;;
59189;SDS011;50749;51.636;4.948;2023-04-25T02:17:27;1.63;;;0.75;;
59189;SDS011;50749;51.636;4.948;2023-04-25T02:19:53;5.65;;;1.17;;
59189;SDS011;50749;51.636;4.948;2023-04-25T02:22:19;5.13;;;1.20;;
59189;SDS011;50749;51.636;4.948;2023-04-25T02:24:46;3.22;;;0.95;;
59189;SDS011;50749;51.636;4.948;2023-04-25T02:27:12;2.83;;;0.95;;
59189;SDS011;50749;51.636;4.948;2023-04-25T02:29:38;4.65;;;0.82;;
59189;SDS011;50749;51.636;4.948;2023-04-25T02:32:04;4.00;;;0.93;;
59189;SDS011;50749;51.636;4.948;2023-04-25T02:34:30;3.38;;;1.23;;
59189;SDS011;50749;51.636;4.948;2023-04-25T02:36:56;2.50;;;0.98;;
59189;SDS011;50749;51.636;4.948;2023-04-25T02:39:21;2.70;;;1.23;;
59189;SDS011;50749;51.636;4.948;2023-04-25T02:41:47;2.50;;;0.82;;
59189;SDS011;50749;51.636;4.948;2023-04-25T02:44:13;3.00;;;1.00;;
59189;SDS011;50749;51.636;4.948;2023-04-25T02:46:39;1.90;;;0.90;;
59189;SDS011;50749;51.636;4.948;2023-04-25T02:49:05;2.40;;;0.90;;
59189;SDS011;50749;51.636;4.948;2023-04-25T02:51:31;3.50;;;1.10;;
59189;SDS011;50749;51.636;4.948;2023-04-25T02:53:57;3.10;;;1.02;;
59189;SDS011;50749;51.636;4.948;2023-04-25T02:56:23;5.00;;;1.10;;
59189;SDS011;50749;51.636;4.948;2023-04-25T02:58:51;2.47;;;0.88;;
59189;SDS011;50749;51.636;4.948;2023-04-25T03:01:17;3.60;;;1.20;;
59189;SDS011;50749;51.636;4.948;2023-04-25T03:03:43;2.15;;;0.98;;
59189;SDS011;50749;51.636;4.948;2023-04-25T03:06:09;5.53;;;1.10;;
59189;SDS011;50749;51.636;4.948;2023-04-25T03:08:35;2.55;;;0.95;;
59189;SDS011;50749;51.636;4.948;2023-04-25T03:11:01;1.83;;;0.88;;
59189;SDS011;50749;51.636;4.948;2023-04-25T03:13:26;4.35;;;0.98;;
59189;SDS011;50749;51.636;4.948;2023-04-25T03:15:54;3.83;;;1.65;;
59189;SDS011;50749;51.636;4.948;2023-04-25T03:18:20;2.50;;;0.90;;
59189;SDS011;50749;51.636;4.948;2023-04-25T03:20:46;3.55;;;1.08;;
59189;SDS011;50749;51.636;4.948;2023-04-25T03:23:12;4.53;;;1.10;;
59189;SDS011;50749;51.636;4.948;2023-04-25T03:25:38;2.83;;;0.90;;
59189;SDS011;50749;51.636;4.948;2023-04-25T03:28:04;3.30;;;0.80;;
59189;SDS011;50749;51.636;4.948;2023-04-25T03:30:30;4.53;;;1.25;;
59189;SDS011;50749;51.636;4.948;2023-04-25T03:32:55;5.38;;;1.23;;
59189;SDS011;50749;51.636;4.948;2023-04-25T03:35:21;3.58;;;0.98;;
59189;SDS011;50749;51.636;4.948;2023-04-25T03:37:48;2.53;;;1.00;;
59189;SDS011;50749;51.636;4.948;2023-04-25T03:40:15;3.17;;;1.05;;
59189;SDS011;50749;51.636;4.948;2023-04-25T03:42:40;5.10;;;1.15;;
59189;SDS011;50749;51.636;4.948;2023-04-25T03:45:07;2.92;;;1.17;;
59189;SDS011;50749;51.636;4.948;2023-04-25T03:47:33;1.88;;;0.73;;
59189;SDS011;50749;51.636;4.948;2023-04-25T03:49:59;3.25;;;1.20;;
59189;SDS011;50749;51.636;4.948;2023-04-25T03:52:26;4.25;;;1.20;;
59189;SDS011;50749;51.636;4.948;2023-04-25T03:54:53;4.97;;;1.10;;
59189;SDS011;50749;51.636;4.948;2023-04-25T03:57:18;7.00;;;1.30;;
59189;SDS011;50749;51.636;4.948;2023-04-25T03:59:44;5.47;;;1.02;;
59189;SDS011;50749;51.636;4.948;2023-04-25T04:02:10;2.83;;;1.42;;
59189;SDS011;50749;51.636;4.948;2023-04-25T04:04:36;2.78;;;0.90;;
59189;SDS011;50749;51.636;4.948;2023-04-25T04:07:02;3.17;;;0.95;;
59189;SDS011;50749;51.636;4.948;2023-04-25T04:09:28;2.83;;;1.05;;
59189;SDS011;50749;51.636;4.948;2023-04-25T04:11:54;3.20;;;1.05;;
59189;SDS011;50749;51.636;4.948;2023-04-25T04:14:20;3.03;;;1.02;;
59189;SDS011;50749;51.636;4.948;2023-04-25T04:16:46;3.53;;;1.08;;
59189;SDS011;50749;51.636;4.948;2023-04-25T04:19:12;6.65;;;1.10;;
59189;SDS011;50749;51.636;4.948;2023-04-25T04:21:37;4.93;;;1.15;;
59189;SDS011;50749;51.636;4.948;2023-04-25T04:24:03;3.22;;;0.88;;
59189;SDS011;50749;51.636;4.948;2023-04-25T04:26:31;3.50;;;1.02;;
59189;SDS011;50749;51.636;4.948;2023-04-25T04:28:58;2.35;;;0.90;;
59189;SDS011;50749;51.636;4.948;2023-04-25T04:31:24;2.83;;;1.00;;
59189;SDS011;50749;51.636;4.948;2023-04-25T04:33:50;2.47;;;0.85;;
59189;SDS011;50749;51.636;4.948;2023-04-25T04:36:16;5.25;;;1.17;;
59189;SDS011;50749;51.636;4.948;2023-04-25T04:38:45;3.10;;;0.93;;
59189;SDS011;50749;51.636;4.948;2023-04-25T04:41:10;4.35;;;1.00;;
59189;SDS011;50749;51.636;4.948;2023-04-25T04:43:36;3.53;;;1.00;;
59189;SDS011;50749;51.636;4.948;2023-04-25T04:46:02;3.53;;;1.30;;
59189;SDS011;50749;51.636;4.948;2023-04-25T04:48:31;4.45;;;1.15;;
59189;SDS011;50749;51.636;4.948;2023-04-25T04:51:00;2.65;;;1.02;;
59189;SDS011;50749;51.636;4.948;2023-04-25T04:53:26;3.78;;;1.00;;
59189;SDS011;50749;51.636;4.948;2023-04-25T04:55:52;3.97;;;0.93;;
59189;SDS011;50749;51.636;4.948;2023-04-25T04:58:18;2.50;;;0.82;;
59189;SDS011;50749;51.636;4.948;2023-04-25T05:00:44;3.92;;;1.00;;
59189;SDS011;50749;51.636;4.948;2023-04-25T05:03:10;3.60;;;1.20;;
59189;SDS011;50749;51.636;4.948;2023-04-25T05:05:39;4.03;;;1.02;;
59189;SDS011;50749;51.636;4.948;2023-04-25T05:08:07;4.43;;;1.10;;
59189;SDS011;50749;51.636;4.948;2023-04-25T05:10:33;3.22;;;0.75;;
59189;SDS011;50749;51.636;4.948;2023-04-25T05:12:59;2.58;;;1.02;;
59189;SDS011;50749;51.636;4.948;2023-04-25T05:15:25;3.10;;;0.90;;
59189;SDS011;50749;51.636;4.948;2023-04-25T05:17:52;1.50;;;0.82;;
59189;SDS011;50749;51.636;4.948;2023-04-25T05:20:17;2.38;;;0.77;;
59189;SDS011;50749;51.636;4.948;2023-04-25T05:22:46;3.33;;;0.98;;
59189;SDS011;50749;51.636;4.948;2023-04-25T05:25:12;3.00;;;0.90;;
59189;SDS011;50749;51.636;4.948;2023-04-25T05:27:38;3.10;;;0.93;;
59189;SDS011;50749;51.636;4.948;2023-04-25T05:30:04;0.93;;;0.60;;
59189;SDS011;50749;51.636;4.948;2023-04-25T05:32:33;2.53;;;0.80;;
59189;SDS011;50749;51.636;4.948;2023-04-25T05:34:59;4.60;;;1.00;;
59189;SDS011;50749;51.636;4.948;2023-04-25T05:37:25;2.17;;;1.00;;
59189;SDS011;50749;51.636;4.948;2023-04-25T05:39:51;3.65;;;1.10;;
59189;SDS011;50749;51.636;4.948;2023-04-25T05:42:17;3.35;;;0.93;;
59189;SDS011;50749;51.636;4.948;2023-04-25T05:44:42;1.35;;;0.98;;
59189;SDS011;50749;51.636;4.948;2023-04-25T05:47:10;3.75;;;1.00;;
59189;SDS011;50749;51.636;4.948;2023-04-25T05:49:36;1.58;;;0.95;;
59189;SDS011;50749;51.636;4.948;2023-04-25T05:52:02;2.63;;;1.20;;
59189;SDS011;50749;51.636;4.948;2023-04-25T05:54:28;3.67;;;1.05;;
59189;SDS011;50749;51.636;4.948;2023-04-25T05:56:55;1.63;;;0.82;;
59189;SDS011;50749;51.636;4.948;2023-04-25T05:59:22;1.73;;;1.02;;
59189;SDS011;50749;51.636;4.948;2023-04-25T06:01:48;2.20;;;0.85;;
59189;SDS011;50749;51.636;4.948;2023-04-25T06:04:13;3.08;;;0.80;;
59189;SDS011;50749;51.636;4.948;2023-04-25T06:06:39;2.17;;;0.68;;
59189;SDS011;50749;51.636;4.948;2023-04-25T06:09:05;1.73;;;0.90;;
59189;SDS011;50749;51.636;4.948;2023-04-25T06:11:31;1.75;;;0.65;;
59189;SDS011;50749;51.636;4.948;2023-04-25T06:13:57;3.13;;;0.98;;
59189;SDS011;50749;51.636;4.948;2023-04-25T06:16:23;2.30;;;1.00;;
59189;SDS011;50749;51.636;4.948;2023-04-25T06:18:51;1.80;;;0.60;;
59189;SDS011;50749;51.636;4.948;2023-04-25T06:21:17;1.95;;;0.77;;
59189;SDS011;50749;51.636;4.948;2023-04-25T06:23:42;3.22;;;0.80;;
59189;SDS011;50749;51.636;4.948;2023-04-25T06:26:08;2.83;;;0.85;;
59189;SDS011;50749;51.636;4.948;2023-04-25T06:28:34;2.55;;;0.90;;
59189;SDS011;50749;51.636;4.948;2023-04-25T06:31:01;2.60;;;0.85;;
59189;SDS011;50749;51.636;4.948;2023-04-25T06:33:27;2.90;;;0.85;;
59189;SDS011;50749;51.636;4.948;2023-04-25T06:35:54;2.08;;;1.00;;
59189;SDS011;50749;51.636;4.948;2023-04-25T06:38:19;2.22;;;0.70;;
59189;SDS011;50749;51.636;4.948;2023-04-25T06:40:45;2.22;;;0.63;;
59189;SDS011;50749;51.636;4.948;2023-04-25T06:43:11;1.30;;;0.65;;
59189;SDS011;50749;51.636;4.948;2023-04-25T06:45:37;3.95;;;0.80;;
59189;SDS011;50749;51.636;4.948;2023-04-25T06:48:03;4.88;;;0.98;;
59189;SDS011;50749;51.636;4.948;2023-04-25T06:50:29;1.48;;;0.70;;
59189;SDS011;50749;51.636;4.948;2023-04-25T06:52:55;3.47;;;0.70;;
59189;SDS011;50749;51.636;4.948;2023-04-25T06:55:21;1.92;;;0.70;;
59189;SDS011;50749;51.636;4.948;2023-04-25T06:57:47;3.08;;;0.88;;
59189;SDS011;50749;51.636;4.948;2023-04-25T07:00:13;1.15;;;0.60;;
59189;SDS011;50749;51.636;4.948;2023-04-25T07:02:39;1.17;;;0.70;;
59189;SDS011;50749;51.636;4.948;2023-04-25T07:05:06;1.73;;;0.90;;
59189;SDS011;50749;51.636;4.948;2023-04-25T07:07:31;4.03;;;0.63;;
59189;SDS011;50749;51.636;4.948;2023-04-25T07:09:58;0.75;;;0.40;;
59189;SDS011;50749;51.636;4.948;2023-04-25T07:12:24;1.60;;;0.75;;
59189;SDS011;50749;51.636;4.948;2023-04-25T07:14:50;2.65;;;0.73;;
59189;SDS011;50749;51.636;4.948;2023-04-25T07:17:16;2.08;;;0.82;;
59189;SDS011;50749;51.636;4.948;2023-04-25T07:19:42;1.20;;;0.70;;
59189;SDS011;50749;51.636;4.948;2023-04-25T07:22:08;2.63;;;0.55;;
59189;SDS011;50749;51.636;4.948;2023-04-25T07:24:34;3.47;;;0.85;;
59189;SDS011;50749;51.636;4.948;2023-04-25T07:27:00;1.20;;;0.77;;
59189;SDS011;50749;51.636;4.948;2023-04-25T07:29:27;1.70;;;0.60;;
59189;SDS011;50749;51.636;4.948;2023-04-25T07:31:52;2.33;;;0.80;;
59189;SDS011;50749;51.636;4.948;2023-04-25T07:34:19;1.65;;;0.60;;
59189;SDS011;50749;51.636;4.948;2023-04-25T07:36:45;2.03;;;0.57;;
59189;SDS011;50749;51.636;4.948;2023-04-25T07:39:11;2.28;;;0.95;;
59189;SDS011;50749;51.636;4.948;2023-04-25T07:41:37;1.38;;;0.47;;
59189;SDS011;50749;51.636;4.948;2023-04-25T07:44:03;2.22;;;0.70;;
59189;SDS011;50749;51.636;4.948;2023-04-25T07:46:28;2.05;;;0.60;;
59189;SDS011;50749;51.636;4.948;2023-04-25T07:48:55;1.50;;;0.65;;
59189;SDS011;50749;51.636;4.948;2023-04-25T07:51:20;1.52;;;0.55;;
59189;SDS011;50749;51.636;4.948;2023-04-25T07:53:47;3.28;;;0.52;;
59189;SDS011;50749;51.636;4.948;2023-04-25T07:56:13;2.05;;;0.40;;
59189;SDS011;50749;51.636;4.948;2023-04-25T07:58:39;1.08;;;0.50;;
59189;SDS011;50749;51.636;4.948;2023-04-25T08:01:04;1.25;;;0.47;;
59189;SDS011;50749;51.636;4.948;2023-04-25T08:03:30;1.83;;;0.73;;
59189;SDS011;50749;51.636;4.948;2023-04-25T08:05:56;2.67;;;0.65;;
59189;SDS011;50749;51.636;4.948;2023-04-25T08:08:22;2.83;;;1.02;;
59189;SDS011;50749;51.636;4.948;2023-04-25T08:10:50;1.40;;;0.70;;
59189;SDS011;50749;51.636;4.948;2023-04-25T08:13:16;1.33;;;0.60;;
59189;SDS011;50749;51.636;4.948;2023-04-25T08:15:42;1.45;;;0.80;;
59189;SDS011;50749;51.636;4.948;2023-04-25T08:18:07;1.23;;;0.45;;
59189;SDS011;50749;51.636;4.948;2023-04-25T08:20:33;1.45;;;0.80;;
59189;SDS011;50749;51.636;4.948;2023-04-25T08:22:59;1.48;;;0.77;;
59189;SDS011;50749;51.636;4.948;2023-04-25T08:25:25;1.08;;;0.47;;
59189;SDS011;50749;51.636;4.948;2023-04-25T08:27:51;2.25;;;1.02;;
59189;SDS011;50749;51.636;4.948;2023-04-25T08:30:17;2.55;;;0.68;;
59189;SDS011;50749;51.636;4.948;2023-04-25T08:32:46;1.25;;;0.60;;
59189;SDS011;50749;51.636;4.948;2023-04-25T08:35:12;3.00;;;0.70;;
59189;SDS011;50749;51.636;4.948;2023-04-25T08:37:37;1.77;;;0.50;;
59189;SDS011;50749;51.636;4.948;2023-04-25T08:40:04;1.38;;;0.50;;
59189;SDS011;50749;51.636;4.948;2023-04-25T08:42:33;2.10;;;0.60;;
59189;SDS011;50749;51.636;4.948;2023-04-25T08:45:00;2.25;;;0.63;;
59189;SDS011;50749;51.636;4.948;2023-04-25T08:47:30;1.10;;;0.50;;
59189;SDS011;50749;51.636;4.948;2023-04-25T08:50:00;1.58;;;0.55;;
59189;SDS011;50749;51.636;4.948;2023-04-25T08:52:30;1.52;;;0.73;;
59189;SDS011;50749;51.636;4.948;2023-04-25T08:55:02;4.07;;;0.68;;
59189;SDS011;50749;51.636;4.948;2023-04-25T08:57:28;0.98;;;0.50;;
59189;SDS011;50749;51.636;4.948;2023-04-25T08:59:56;1.27;;;0.60;;
59189;SDS011;50749;51.636;4.948;2023-04-25T09:02:22;1.30;;;0.60;;
59189;SDS011;50749;51.636;4.948;2023-04-25T09:04:50;2.17;;;0.50;;
59189;SDS011;50749;51.636;4.948;2023-04-25T09:07:16;1.67;;;0.40;;
59189;SDS011;50749;51.636;4.948;2023-04-25T09:09:46;0.93;;;0.50;;
59189;SDS011;50749;51.636;4.948;2023-04-25T09:12:13;3.05;;;0.60;;
59189;SDS011;50749;51.636;4.948;2023-04-25T09:14:39;1.88;;;0.75;;
59189;SDS011;50749;51.636;4.948;2023-04-25T09:17:05;1.30;;;0.60;;
59189;SDS011;50749;51.636;4.948;2023-04-25T09:19:34;2.28;;;0.73;;
59189;SDS011;50749;51.636;4.948;2023-04-25T09:22:04;1.83;;;0.50;;
59189;SDS011;50749;51.636;4.948;2023-04-25T09:24:31;1.25;;;0.35;;
59189;SDS011;50749;51.636;4.948;2023-04-25T09:27:07;1.23;;;0.57;;
59189;SDS011;50749;51.636;4.948;2023-04-25T09:29:35;3.50;;;0.60;;
59189;SDS011;50749;51.636;4.948;2023-04-25T09:32:13;0.65;;;0.40;;
59189;SDS011;50749;51.636;4.948;2023-04-25T09:34:47;1.33;;;0.50;;
59189;SDS011;50749;51.636;4.948;2023-04-25T09:37:18;1.30;;;0.43;;
59189;SDS011;50749;51.636;4.948;2023-04-25T09:39:44;2.33;;;0.47;;
59189;SDS011;50749;51.636;4.948;2023-04-25T09:42:12;1.92;;;0.73;;
59189;SDS011;50749;51.636;4.948;2023-04-25T09:44:45;3.30;;;1.13;;
59189;SDS011;50749;51.636;4.948;2023-04-25T09:47:12;2.03;;;0.75;;
59189;SDS011;50749;51.636;4.948;2023-04-25T09:49:40;1.13;;;0.55;;
59189;SDS011;50749;51.636;4.948;2023-04-25T09:52:08;1.15;;;0.47;;
59189;SDS011;50749;51.636;4.948;2023-04-25T09:54:34;0.57;;;0.40;;
59189;SDS011;50749;51.636;4.948;2023-04-25T09:57:11;0.85;;;0.47;;
59189;SDS011;50749;51.636;4.948;2023-04-25T09:59:42;2.20;;;0.80;;
59189;SDS011;50749;51.636;4.948;2023-04-25T10:02:10;1.20;;;0.50;;
59189;SDS011;50749;51.636;4.948;2023-04-25T10:04:37;1.23;;;0.60;;
59189;SDS011;50749;51.636;4.948;2023-04-25T10:07:07;0.90;;;0.40;;
59189;SDS011;50749;51.636;4.948;2023-04-25T10:09:36;0.98;;;0.52;;
59189;SDS011;50749;51.636;4.948;2023-04-25T10:12:03;1.60;;;0.60;;
59189;SDS011;50749;51.636;4.948;2023-04-25T10:14:30;0.80;;;0.50;;
59189;SDS011;50749;51.636;4.948;2023-04-25T10:16:57;1.67;;;0.50;;
59189;SDS011;50749;51.636;4.948;2023-04-25T10:19:26;0.77;;;0.40;;
59189;SDS011;50749;51.636;4.948;2023-04-25T10:24:22;1.15;;;0.40;;
59189;SDS011;50749;51.636;4.948;2023-04-25T10:26:48;1.02;;;0.50;;
59189;SDS011;50749;51.636;4.948;2023-04-25T10:29:25;2.67;;;0.50;;
59189;SDS011;50749;51.636;4.948;2023-04-25T10:31:51;1.58;;;0.43;;
59189;SDS011;50749;51.636;4.948;2023-04-25T10:34:18;2.55;;;0.55;;
59189;SDS011;50749;51.636;4.948;2023-04-25T10:36:48;1.45;;;0.57;;
59189;SDS011;50749;51.636;4.948;2023-04-25T10:39:21;1.98;;;0.55;;
59189;SDS011;50749;51.636;4.948;2023-04-25T10:41:57;0.93;;;0.40;;
59189;SDS011;50749;51.636;4.948;2023-04-25T10:44:28;1.60;;;0.60;;
59189;SDS011;50749;51.636;4.948;2023-04-25T10:46:55;0.95;;;0.50;;
59189;SDS011;50749;51.636;4.948;2023-04-25T10:49:35;0.35;;;0.30;;
59189;SDS011;50749;51.636;4.948;2023-04-25T10:54:54;0.98;;;0.50;;
59189;SDS011;50749;51.636;4.948;2023-04-25T10:57:44;0.50;;;0.30;;
59189;SDS011;50749;51.636;4.948;2023-04-25T11:00:13;1.77;;;0.38;;
59189;SDS011;50749;51.636;4.948;2023-04-25T11:07:55;1.65;;;0.52;;
59189;SDS011;50749;51.636;4.948;2023-04-25T11:10:30;0.75;;;0.47;;
59189;SDS011;50749;51.636;4.948;2023-04-25T11:12:57;0.82;;;0.40;;
59189;SDS011;50749;51.636;4.948;2023-04-25T11:15:24;1.67;;;0.60;;
59189;SDS011;50749;51.636;4.948;2023-04-25T11:17:52;0.70;;;0.38;;
59189;SDS011;50749;51.636;4.948;2023-04-25T11:20:19;0.55;;;0.38;;
59189;SDS011;50749;51.636;4.948;2023-04-25T11:22:46;2.20;;;0.50;;
59189;SDS011;50749;51.636;4.948;2023-04-25T11:25:13;0.50;;;0.30;;
59189;SDS011;50749;51.636;4.948;2023-04-25T11:27:51;1.20;;;0.52;;
59189;SDS011;50749;51.636;4.948;2023-04-25T11:30:19;1.13;;;0.43;;
59189;SDS011;50749;51.636;4.948;2023-04-25T11:32:46;1.50;;;0.30;;
59189;SDS011;50749;51.636;4.948;2023-04-25T11:35:13;1.73;;;0.35;;
59189;SDS011;50749;51.636;4.948;2023-04-25T11:37:39;3.00;;;0.52;;
59189;SDS011;50749;51.636;4.948;2023-04-25T11:40:06;2.13;;;0.40;;
59189;SDS011;50749;51.636;4.948;2023-04-25T11:42:34;1.00;;;0.77;;
59189;SDS011;50749;51.636;4.948;2023-04-25T11:45:00;1.13;;;0.50;;
59189;SDS011;50749;51.636;4.948;2023-04-25T11:47:29;0.90;;;0.40;;
59189;SDS011;50749;51.636;4.948;2023-04-25T11:49:59;1.08;;;0.43;;
59189;SDS011;50749;51.636;4.948;2023-04-25T11:52:36;3.22;;;0.88;;
59189;SDS011;50749;51.636;4.948;2023-04-25T11:55:07;1.17;;;0.45;;
59189;SDS011;50749;51.636;4.948;2023-04-25T11:57:34;1.40;;;0.50;;
59189;SDS011;50749;51.636;4.948;2023-04-25T12:02:36;1.35;;;0.40;;
59189;SDS011;50749;51.636;4.948;2023-04-25T12:05:06;0.68;;;0.40;;
59189;SDS011;50749;51.636;4.948;2023-04-25T12:07:33;2.92;;;0.43;;
59189;SDS011;50749;51.636;4.948;2023-04-25T12:10:04;1.58;;;0.40;;
59189;SDS011;50749;51.636;4.948;2023-04-25T12:12:34;2.50;;;0.47;;
59189;SDS011;50749;51.636;4.948;2023-04-25T12:15:11;1.70;;;0.40;;
59189;SDS011;50749;51.636;4.948;2023-04-25T12:17:52;0.77;;;0.40;;
59189;SDS011;50749;51.636;4.948;2023-04-25T12:20:20;1.08;;;0.45;;
59189;SDS011;50749;51.636;4.948;2023-04-25T12:22:56;1.17;;;0.40;;
59189;SDS011;50749;51.636;4.948;2023-04-25T12:25:38;1.20;;;0.30;;
59189;SDS011;50749;51.636;4.948;2023-04-25T12:31:02;1.60;;;0.45;;
59189;SDS011;50749;51.636;4.948;2023-04-25T12:33:32;0.95;;;0.30;;
59189;SDS011;50749;51.636;4.948;2023-04-25T12:35:59;2.58;;;0.63;;
59189;SDS011;50749;51.636;4.948;2023-04-25T12:38:29;0.85;;;0.40;;
59189;SDS011;50749;51.636;4.948;2023-04-25T12:40:57;1.25;;;0.40;;
59189;SDS011;50749;51.636;4.948;2023-04-25T12:43:23;1.08;;;0.50;;
59189;SDS011;50749;51.636;4.948;2023-04-25T12:45:54;1.15;;;0.30;;
59189;SDS011;50749;51.636;4.948;2023-04-25T12:48:21;1.02;;;0.40;;
59189;SDS011;50749;51.636;4.948;2023-04-25T12:50:48;2.97;;;0.68;;
59189;SDS011;50749;51.636;4.948;2023-04-25T12:53:15;1.85;;;0.52;;
59189;SDS011;50749;51.636;4.948;2023-04-25T12:55:42;1.17;;;0.40;;
59189;SDS011;50749;51.636;4.948;2023-04-25T12:58:08;0.85;;;0.32;;
59189;SDS011;50749;51.636;4.948;2023-04-25T13:00:34;1.38;;;0.52;;
59189;SDS011;50749;51.636;4.948;2023-04-25T13:03:00;0.68;;;0.40;;
59189;SDS011;50749;51.636;4.948;2023-04-25T13:05:26;0.70;;;0.30;;
59189;SDS011;50749;51.636;4.948;2023-04-25T13:07:52;1.40;;;0.30;;
59189;SDS011;50749;51.636;4.948;2023-04-25T13:10:20;2.60;;;0.57;;
59189;SDS011;50749;51.636;4.948;2023-04-25T13:12:46;1.63;;;0.40;;
59189;SDS011;50749;51.636;4.948;2023-04-25T13:15:12;0.73;;;0.38;;
59189;SDS011;50749;51.636;4.948;2023-04-25T13:17:41;2.42;;;0.40;;
59189;SDS011;50749;51.636;4.948;2023-04-25T13:20:08;1.27;;;0.30;;
59189;SDS011;50749;51.636;4.948;2023-04-25T13:22:37;2.40;;;0.57;;
59189;SDS011;50749;51.636;4.948;2023-04-25T13:25:04;1.30;;;0.50;;
59189;SDS011;50749;51.636;4.948;2023-04-25T13:27:31;0.57;;;0.30;;
59189;SDS011;50749;51.636;4.948;2023-04-25T13:29:58;2.58;;;0.40;;
59189;SDS011;50749;51.636;4.948;2023-04-25T13:32:24;1.10;;;0.40;;
59189;SDS011;50749;51.636;4.948;2023-04-25T13:34:50;0.77;;;0.43;;
59189;SDS011;50749;51.636;4.948;2023-04-25T13:37:16;0.52;;;0.32;;
59189;SDS011;50749;51.636;4.948;2023-04-25T13:39:42;2.15;;;0.40;;
59189;SDS011;50749;51.636;4.948;2023-04-25T13:42:08;1.10;;;0.30;;
59189;SDS011;50749;51.636;4.948;2023-04-25T13:44:34;0.70;;;0.40;;
59189;SDS011;50749;51.636;4.948;2023-04-25T13:47:00;1.85;;;0.32;;
59189;SDS011;50749;51.636;4.948;2023-04-25T13:49:26;1.02;;;0.47;;
59189;SDS011;50749;51.636;4.948;2023-04-25T13:51:52;1.25;;;0.30;;
59189;SDS011;50749;51.636;4.948;2023-04-25T13:54:18;0.98;;;0.40;;
59189;SDS011;50749;51.636;4.948;2023-04-25T13:56:43;2.47;;;0.43;;
59189;SDS011;50749;51.636;4.948;2023-04-25T13:59:09;1.48;;;0.40;;
59189;SDS011;50749;51.636;4.948;2023-04-25T14:01:35;1.52;;;0.43;;
59189;SDS011;50749;51.636;4.948;2023-04-25T14:04:02;0.90;;;0.40;;
59189;SDS011;50749;51.636;4.948;2023-04-25T14:06:31;1.70;;;0.40;;
59189;SDS011;50749;51.636;4.948;2023-04-25T14:08:58;0.85;;;0.40;;
59189;SDS011;50749;51.636;4.948;2023-04-25T14:11:25;0.93;;;0.43;;
59189;SDS011;50749;51.636;4.948;2023-04-25T14:13:51;1.15;;;0.30;;
59189;SDS011;50749;51.636;4.948;2023-04-25T14:16:18;0.85;;;0.50;;
59189;SDS011;50749;51.636;4.948;2023-04-25T14:18:45;0.32;;;0.30;;
59189;SDS011;50749;51.636;4.948;2023-04-25T14:21:10;0.98;;;0.38;;
59189;SDS011;50749;51.636;4.948;2023-04-25T14:23:36;1.58;;;0.60;;
59189;SDS011;50749;51.636;4.948;2023-04-25T14:26:02;0.88;;;0.30;;
59189;SDS011;50749;51.636;4.948;2023-04-25T14:28:28;2.13;;;0.60;;
59189;SDS011;50749;51.636;4.948;2023-04-25T14:30:54;1.40;;;0.30;;
59189;SDS011;50749;51.636;4.948;2023-04-25T14:33:20;1.63;;;0.38;;
59189;SDS011;50749;51.636;4.948;2023-04-25T14:35:47;0.35;;;0.30;;
59189;SDS011;50749;51.636;4.948;2023-04-25T14:38:13;2.83;;;0.73;;
59189;SDS011;50749;51.636;4.948;2023-04-25T14:40:39;0.85;;;0.30;;
59189;SDS011;50749;51.636;4.948;2023-04-25T14:43:05;1.17;;;0.45;;
59189;SDS011;50749;51.636;4.948;2023-04-25T14:45:33;0.98;;;0.43;;
59189;SDS011;50749;51.636;4.948;2023-04-25T14:47:59;0.95;;;0.30;;
59189;SDS011;50749;51.636;4.948;2023-04-25T14:50:24;1.33;;;0.30;;
59189;SDS011;50749;51.636;4.948;2023-04-25T14:52:50;0.93;;;0.30;;
59189;SDS011;50749;51.636;4.948;2023-04-25T14:55:18;0.57;;;0.38;;
59189;SDS011;50749;51.636;4.948;2023-04-25T14:57:44;1.75;;;0.50;;
59189;SDS011;50749;51.636;4.948;2023-04-25T15:00:11;1.45;;;0.45;;
59189;SDS011;50749;51.636;4.948;2023-04-25T15:02:40;1.30;;;0.47;;